Lappeenranta

Airport
ICAO code: 
EFLP
Summary
ICAO Region: 
EUR
Territory: 
Location: 
Lappeenranta,
Elevation: 
349 ft
Coordinates: 
Aerial View: 
61° 2' 40.564" N, 28° 8' 41.075" E
Metar
Observation
EFLP 210420Z AUTO 35012KT 320V020 1400 R06/1900D SN OVC006 M05/M06 Q0990
Station
Lappeenranta
Date/Time
2022-01-21 04:20:00
Wind direction
350°
Wind speed
12 kts
Lowest cloud amount
overcast
Temperature
-5°C
Dew point
-6°C
Humidity
92%
QNH
990 hPa
Weather condition
n/a

Description

Lappeenranta Airport (Finnish: Lappeenrannan lentoasema) is an international airport in Lappeenranta, Finland.

Climatology

Subarctic climate (Köppen climate classification Dfc) - long, usually very cold winters, and short, cool to mild summers.

Runways

Designator Length Width Surface Rops
6/24 2500 60 ASP No/No
Airport map: 
Aerial View: 

Accidents and Serious Incidents at or in the vicinity of EFLP

SKYbrary Partners:

Safety knowledge contributed by: